sensor_id;sensor_type;location;lat;lon;timestamp;pressure;altitude;pressure_sealevel;temperature;humidity
56176;BME280;63065;51.082;17.016;2023-02-28T00:01:50;101706.97;;;6.23;33.67
56176;BME280;63065;51.082;17.016;2023-02-28T00:04:15;101709.01;;;6.20;32.03
56176;BME280;63065;51.082;17.016;2023-02-28T00:06:41;101709.41;;;6.18;32.93
56176;BME280;63065;51.082;17.016;2023-02-28T00:09:06;101705.64;;;6.20;32.85
56176;BME280;63065;51.082;17.016;2023-02-28T00:11:32;101706.52;;;6.36;32.90
56176;BME280;63065;51.082;17.016;2023-02-28T00:13:59;101705.86;;;6.14;32.98
56176;BME280;63065;51.082;17.016;2023-02-28T00:16:23;101706.36;;;6.12;33.04
56176;BME280;63065;51.082;17.016;2023-02-28T00:18:49;101706.18;;;6.19;32.05
56176;BME280;63065;51.082;17.016;2023-02-28T00:21:14;101704.42;;;6.05;32.63
56176;BME280;63065;51.082;17.016;2023-02-28T00:23:39;101701.89;;;6.13;32.54
56176;BME280;63065;51.082;17.016;2023-02-28T00:26:05;101701.02;;;6.18;32.30
56176;BME280;63065;51.082;17.016;2023-02-28T00:28:30;101702.10;;;6.20;33.57
56176;BME280;63065;51.082;17.016;2023-02-28T00:30:56;101698.98;;;6.45;33.52
56176;BME280;63065;51.082;17.016;2023-02-28T00:33:21;101696.82;;;6.29;32.74
56176;BME280;63065;51.082;17.016;2023-02-28T00:35:47;101700.84;;;6.28;32.87
56176;BME280;63065;51.082;17.016;2023-02-28T00:38:13;101698.39;;;6.46;33.46
56176;BME280;63065;51.082;17.016;2023-02-28T00:40:38;101697.89;;;6.26;33.20
56176;BME280;63065;51.082;17.016;2023-02-28T00:43:03;101697.94;;;6.31;33.69
56176;BME280;63065;51.082;17.016;2023-02-28T00:45:30;101696.07;;;6.23;33.48
56176;BME280;63065;51.082;17.016;2023-02-28T00:47:54;101695.05;;;6.27;33.12
56176;BME280;63065;51.082;17.016;2023-02-28T00:50:20;101693.19;;;6.28;33.14
56176;BME280;63065;51.082;17.016;2023-02-28T00:52:45;101691.94;;;6.14;32.05
56176;BME280;63065;51.082;17.016;2023-02-28T00:55:10;101692.79;;;6.14;31.98
56176;BME280;63065;51.082;17.016;2023-02-28T00:57:35;101693.62;;;6.13;33.38
56176;BME280;63065;51.082;17.016;2023-02-28T01:00:01;101691.91;;;6.17;33.50
56176;BME280;63065;51.082;17.016;2023-02-28T01:02:26;101695.72;;;6.42;33.09
56176;BME280;63065;51.082;17.016;2023-02-28T01:04:52;101692.48;;;6.23;32.67
56176;BME280;63065;51.082;17.016;2023-02-28T01:07:17;101692.90;;;6.20;32.91
56176;BME280;63065;51.082;17.016;2023-02-28T01:09:43;101694.13;;;6.20;32.67
56176;BME280;63065;51.082;17.016;2023-02-28T01:12:08;101693.48;;;6.18;33.68
56176;BME280;63065;51.082;17.016;2023-02-28T01:14:34;101693.71;;;6.25;33.34
56176;BME280;63065;51.082;17.016;2023-02-28T01:16:59;101692.41;;;6.23;33.61
56176;BME280;63065;51.082;17.016;2023-02-28T01:19:25;101689.27;;;6.21;32.49
56176;BME280;63065;51.082;17.016;2023-02-28T01:21:50;101690.57;;;6.26;33.09
56176;BME280;63065;51.082;17.016;2023-02-28T01:24:16;101688.59;;;6.22;32.81
56176;BME280;63065;51.082;17.016;2023-02-28T01:26:41;101686.80;;;6.36;32.97
56176;BME280;63065;51.082;17.016;2023-02-28T01:29:07;101687.71;;;5.83;33.05
56176;BME280;63065;51.082;17.016;2023-02-28T01:31:32;101686.11;;;6.14;33.30
56176;BME280;63065;51.082;17.016;2023-02-28T01:33:57;101684.54;;;6.01;33.35
56176;BME280;63065;51.082;17.016;2023-02-28T01:36:24;101688.10;;;6.19;32.95
56176;BME280;63065;51.082;17.016;2023-02-28T01:38:49;101689.78;;;6.05;33.90
56176;BME280;63065;51.082;17.016;2023-02-28T01:41:18;101685.22;;;6.14;33.71
56176;BME280;63065;51.082;17.016;2023-02-28T01:46:05;101681.25;;;5.80;33.60
56176;BME280;63065;51.082;17.016;2023-02-28T01:48:32;101681.81;;;6.04;33.40
56176;BME280;63065;51.082;17.016;2023-02-28T01:50:59;101680.66;;;6.05;33.64
56176;BME280;63065;51.082;17.016;2023-02-28T01:53:26;101680.64;;;5.80;33.58
56176;BME280;63065;51.082;17.016;2023-02-28T01:55:49;101678.93;;;5.76;34.50
56176;BME280;63065;51.082;17.016;2023-02-28T01:58:12;101681.76;;;5.79;34.01
56176;BME280;63065;51.082;17.016;2023-02-28T02:00:37;101681.03;;;5.80;34.35
56176;BME280;63065;51.082;17.016;2023-02-28T02:03:08;101686.82;;;5.77;34.34
56176;BME280;63065;51.082;17.016;2023-02-28T02:05:30;101686.04;;;6.02;33.99
56176;BME280;63065;51.082;17.016;2023-02-28T02:07:56;101683.86;;;5.78;34.78
56176;BME280;63065;51.082;17.016;2023-02-28T02:10:21;101684.47;;;6.04;33.69
56176;BME280;63065;51.082;17.016;2023-02-28T02:12:58;101685.05;;;6.28;32.86
56176;BME280;63065;51.082;17.016;2023-02-28T02:15:13;101685.22;;;5.98;33.14
56176;BME280;63065;51.082;17.016;2023-02-28T02:17:39;101681.07;;;6.07;33.01
56176;BME280;63065;51.082;17.016;2023-02-28T02:24:59;101679.23;;;6.14;33.74
56176;BME280;63065;51.082;17.016;2023-02-28T02:27:29;101676.66;;;5.62;34.04
56176;BME280;63065;51.082;17.016;2023-02-28T02:30:00;101675.75;;;5.76;33.44
56176;BME280;63065;51.082;17.016;2023-02-28T02:34:41;101676.56;;;6.07;34.29
56176;BME280;63065;51.082;17.016;2023-02-28T02:37:08;101678.10;;;6.03;34.03
56176;BME280;63065;51.082;17.016;2023-02-28T02:39:30;101678.02;;;5.86;33.65
56176;BME280;63065;51.082;17.016;2023-02-28T02:41:54;101676.42;;;6.02;33.96
56176;BME280;63065;51.082;17.016;2023-02-28T02:44:21;101678.05;;;5.88;34.48
56176;BME280;63065;51.082;17.016;2023-02-28T02:46:44;101675.47;;;5.96;34.71
56176;BME280;63065;51.082;17.016;2023-02-28T02:49:11;101673.96;;;5.67;34.61
56176;BME280;63065;51.082;17.016;2023-02-28T02:51:35;101672.77;;;5.55;35.12
56176;BME280;63065;51.082;17.016;2023-02-28T02:54:03;101672.56;;;5.63;34.06
56176;BME280;63065;51.082;17.016;2023-02-28T02:56:27;101670.24;;;5.67;34.96
56176;BME280;63065;51.082;17.016;2023-02-28T02:58:51;101669.86;;;5.73;34.96
56176;BME280;63065;51.082;17.016;2023-02-28T03:01:18;101672.56;;;5.70;34.40
56176;BME280;63065;51.082;17.016;2023-02-28T03:03:40;101674.25;;;5.72;34.71
56176;BME280;63065;51.082;17.016;2023-02-28T03:06:05;101673.98;;;5.69;34.21
56176;BME280;63065;51.082;17.016;2023-02-28T03:08:35;101673.68;;;5.59;34.36
56176;BME280;63065;51.082;17.016;2023-02-28T03:10:58;101674.51;;;5.68;33.84
56176;BME280;63065;51.082;17.016;2023-02-28T03:13:35;101675.07;;;5.63;34.25
56176;BME280;63065;51.082;17.016;2023-02-28T03:15:57;101675.07;;;5.85;34.47
56176;BME280;63065;51.082;17.016;2023-02-28T03:18:18;101675.63;;;5.57;34.82
56176;BME280;63065;51.082;17.016;2023-02-28T03:20:40;101675.52;;;5.62;34.57
56176;BME280;63065;51.082;17.016;2023-02-28T03:23:12;101680.42;;;5.60;34.45
56176;BME280;63065;51.082;17.016;2023-02-28T03:25:33;101682.25;;;5.71;34.15
56176;BME280;63065;51.082;17.016;2023-02-28T03:28:00;101679.96;;;5.65;34.63
56176;BME280;63065;51.082;17.016;2023-02-28T03:30:24;101676.92;;;5.83;33.61
56176;BME280;63065;51.082;17.016;2023-02-28T03:32:51;101681.12;;;5.74;33.44
56176;BME280;63065;51.082;17.016;2023-02-28T03:35:12;101688.66;;;5.48;33.97
56176;BME280;63065;51.082;17.016;2023-02-28T03:37:38;101686.55;;;5.51;34.43
56176;BME280;63065;51.082;17.016;2023-02-28T03:40:02;101684.61;;;5.34;34.70
56176;BME280;63065;51.082;17.016;2023-02-28T03:42:28;101685.15;;;5.61;35.12
56176;BME280;63065;51.082;17.016;2023-02-28T03:44:54;101687.43;;;5.35;34.86
56176;BME280;63065;51.082;17.016;2023-02-28T03:47:19;101692.30;;;5.85;34.80
56176;BME280;63065;51.082;17.016;2023-02-28T03:49:44;101697.39;;;5.79;33.94
56176;BME280;63065;51.082;17.016;2023-02-28T03:52:07;101698.65;;;5.59;34.54
56176;BME280;63065;51.082;17.016;2023-02-28T03:54:34;101694.94;;;5.37;34.11
56176;BME280;63065;51.082;17.016;2023-02-28T03:56:59;101697.06;;;5.70;33.56
56176;BME280;63065;51.082;17.016;2023-02-28T03:59:26;101697.08;;;5.71;33.76
56176;BME280;63065;51.082;17.016;2023-02-28T04:01:48;101695.56;;;5.55;34.22
56176;BME280;63065;51.082;17.016;2023-02-28T04:04:13;101693.89;;;5.57;34.47
56176;BME280;63065;51.082;17.016;2023-02-28T04:06:38;101695.62;;;5.80;34.25
56176;BME280;63065;51.082;17.016;2023-02-28T04:09:05;101696.82;;;5.80;34.08
56176;BME280;63065;51.082;17.016;2023-02-28T04:11:33;101699.52;;;5.57;34.11
56176;BME280;63065;51.082;17.016;2023-02-28T04:13:55;101703.46;;;5.78;34.31
56176;BME280;63065;51.082;17.016;2023-02-28T04:16:20;101702.16;;;5.75;34.44
56176;BME280;63065;51.082;17.016;2023-02-28T04:18:46;101703.77;;;5.47;34.27
56176;BME280;63065;51.082;17.016;2023-02-28T04:21:12;101705.20;;;5.57;34.32
56176;BME280;63065;51.082;17.016;2023-02-28T04:23:37;101705.40;;;5.61;33.77
56176;BME280;63065;51.082;17.016;2023-02-28T04:26:02;101708.04;;;5.57;33.66
56176;BME280;63065;51.082;17.016;2023-02-28T04:28:27;101709.94;;;5.62;32.95
56176;BME280;63065;51.082;17.016;2023-02-28T04:30:55;101711.58;;;5.53;33.31
56176;BME280;63065;51.082;17.016;2023-02-28T04:33:18;101714.72;;;6.00;32.80
56176;BME280;63065;51.082;17.016;2023-02-28T04:35:44;101713.13;;;5.86;32.69
56176;BME280;63065;51.082;17.016;2023-02-28T04:38:09;101712.79;;;5.86;32.55
56176;BME280;63065;51.082;17.016;2023-02-28T04:40:35;101713.32;;;5.78;33.38
56176;BME280;63065;51.082;17.016;2023-02-28T04:43:00;101711.34;;;5.76;32.84
56176;BME280;63065;51.082;17.016;2023-02-28T04:45:26;101713.16;;;5.79;32.98
56176;BME280;63065;51.082;17.016;2023-02-28T04:47:51;101714.44;;;5.79;33.31
56176;BME280;63065;51.082;17.016;2023-02-28T04:50:17;101716.79;;;5.76;33.21
56176;BME280;63065;51.082;17.016;2023-02-28T04:52:42;101716.30;;;5.83;33.29
56176;BME280;63065;51.082;17.016;2023-02-28T04:55:08;101716.19;;;5.48;32.79
56176;BME280;63065;51.082;17.016;2023-02-28T04:57:32;101719.16;;;5.61;33.64
56176;BME280;63065;51.082;17.016;2023-02-28T04:59:58;101719.14;;;5.68;34.17
56176;BME280;63065;51.082;17.016;2023-02-28T05:02:23;101721.58;;;5.61;33.82
56176;BME280;63065;51.082;17.016;2023-02-28T05:04:49;101720.35;;;5.42;34.46
56176;BME280;63065;51.082;17.016;2023-02-28T05:07:14;101720.30;;;5.71;33.47
56176;BME280;63065;51.082;17.016;2023-02-28T05:09:39;101719.04;;;5.50;33.59
56176;BME280;63065;51.082;17.016;2023-02-28T05:12:05;101720.86;;;5.80;32.94
56176;BME280;63065;51.082;17.016;2023-02-28T05:14:30;101721.49;;;5.87;33.28
56176;BME280;63065;51.082;17.016;2023-02-28T05:16:55;101723.16;;;5.57;33.90
56176;BME280;63065;51.082;17.016;2023-02-28T05:19:20;101727.42;;;5.51;33.69
56176;BME280;63065;51.082;17.016;2023-02-28T05:21:51;101727.04;;;5.80;34.08
56176;BME280;63065;51.082;17.016;2023-02-28T05:24:11;101725.57;;;5.58;34.41
56176;BME280;63065;51.082;17.016;2023-02-28T05:26:38;101726.97;;;5.74;33.45
56176;BME280;63065;51.082;17.016;2023-02-28T05:29:02;101729.12;;;5.68;34.02
56176;BME280;63065;51.082;17.016;2023-02-28T05:31:27;101729.46;;;5.83;34.13
56176;BME280;63065;51.082;17.016;2023-02-28T05:33:53;101730.11;;;5.89;33.52
56176;BME280;63065;51.082;17.016;2023-02-28T05:36:18;101731.58;;;5.86;33.55
56176;BME280;63065;51.082;17.016;2023-02-28T05:38:46;101736.84;;;5.37;33.61
56176;BME280;63065;51.082;17.016;2023-02-28T05:41:10;101739.20;;;5.57;34.02
56176;BME280;63065;51.082;17.016;2023-02-28T05:43:34;101742.73;;;5.63;33.78
56176;BME280;63065;51.082;17.016;2023-02-28T05:46:01;101745.82;;;5.62;34.47
56176;BME280;63065;51.082;17.016;2023-02-28T05:48:24;101743.57;;;5.72;33.91
56176;BME280;63065;51.082;17.016;2023-02-28T05:50:50;101747.95;;;5.89;33.70
56176;BME280;63065;51.082;17.016;2023-02-28T05:53:15;101750.69;;;5.65;32.94
56176;BME280;63065;51.082;17.016;2023-02-28T05:55:41;101751.82;;;5.38;33.67
56176;BME280;63065;51.082;17.016;2023-02-28T05:58:06;101754.72;;;5.83;33.96
56176;BME280;63065;51.082;17.016;2023-02-28T06:00:31;101754.38;;;5.70;33.48
56176;BME280;63065;51.082;17.016;2023-02-28T06:02:56;101757.24;;;5.73;32.96
56176;BME280;63065;51.082;17.016;2023-02-28T06:05:21;101759.60;;;5.51;33.49
56176;BME280;63065;51.082;17.016;2023-02-28T06:07:46;101762.05;;;5.67;33.24
56176;BME280;63065;51.082;17.016;2023-02-28T06:10:12;101765.48;;;5.69;33.23
56176;BME280;63065;51.082;17.016;2023-02-28T06:12:38;101767.61;;;5.84;33.66
56176;BME280;63065;51.082;17.016;2023-02-28T06:15:03;101768.47;;;5.93;33.50
56176;BME280;63065;51.082;17.016;2023-02-28T06:17:27;101771.00;;;6.00;33.50
56176;BME280;63065;51.082;17.016;2023-02-28T06:19:52;101773.13;;;6.04;33.43
56176;BME280;63065;51.082;17.016;2023-02-28T06:22:18;101774.28;;;5.93;33.25
56176;BME280;63065;51.082;17.016;2023-02-28T06:24:43;101773.00;;;5.96;32.97
56176;BME280;63065;51.082;17.016;2023-02-28T06:27:09;101777.16;;;6.06;32.53
56176;BME280;63065;51.082;17.016;2023-02-28T06:29:35;101782.61;;;6.08;33.04
56176;BME280;63065;51.082;17.016;2023-02-28T06:32:00;101784.83;;;6.15;32.54
56176;BME280;63065;51.082;17.016;2023-02-28T06:34:26;101788.33;;;6.38;32.18
56176;BME280;63065;51.082;17.016;2023-02-28T06:36:52;101788.08;;;6.23;32.21
56176;BME280;63065;51.082;17.016;2023-02-28T06:39:17;101793.69;;;6.36;32.15
56176;BME280;63065;51.082;17.016;2023-02-28T06:41:43;101793.85;;;6.42;31.89
56176;BME280;63065;51.082;17.016;2023-02-28T06:44:12;101793.56;;;6.41;31.41
56176;BME280;63065;51.082;17.016;2023-02-28T06:46:33;101794.76;;;6.35;30.06
56176;BME280;63065;51.082;17.016;2023-02-28T06:48:59;101795.29;;;6.18;30.15
56176;BME280;63065;51.082;17.016;2023-02-28T06:51:24;101796.78;;;6.07;29.94
56176;BME280;63065;51.082;17.016;2023-02-28T06:53:50;101798.03;;;5.93;30.71
56176;BME280;63065;51.082;17.016;2023-02-28T06:56:17;101798.17;;;6.15;31.23
56176;BME280;63065;51.082;17.016;2023-02-28T06:58:41;101799.16;;;5.93;30.27
56176;BME280;63065;51.082;17.016;2023-02-28T07:01:07;101799.44;;;5.72;31.76
56176;BME280;63065;51.082;17.016;2023-02-28T07:03:32;101801.59;;;5.69;31.65
56176;BME280;63065;51.082;17.016;2023-02-28T07:05:57;101801.64;;;5.70;31.64
56176;BME280;63065;51.082;17.016;2023-02-28T07:08:22;101802.24;;;5.84;31.12
56176;BME280;63065;51.082;17.016;2023-02-28T07:10:47;101802.54;;;5.89;31.51
56176;BME280;63065;51.082;17.016;2023-02-28T07:13:13;101801.41;;;5.89;31.20
56176;BME280;63065;51.082;17.016;2023-02-28T07:15:38;101801.09;;;5.82;29.07
56176;BME280;63065;51.082;17.016;2023-02-28T07:18:04;101804.89;;;5.83;30.46
56176;BME280;63065;51.082;17.016;2023-02-28T07:20:35;101805.62;;;5.85;30.58
56176;BME280;63065;51.082;17.016;2023-02-28T07:22:54;101804.82;;;5.82;30.85
56176;BME280;63065;51.082;17.016;2023-02-28T07:25:20;101806.46;;;6.05;31.36
56176;BME280;63065;51.082;17.016;2023-02-28T07:27:45;101806.60;;;6.07;30.03
56176;BME280;63065;51.082;17.016;2023-02-28T07:30:11;101805.75;;;5.90;30.37
56176;BME280;63065;51.082;17.016;2023-02-28T07:32:36;101806.08;;;5.94;30.83
56176;BME280;63065;51.082;17.016;2023-02-28T07:35:01;101806.75;;;5.94;28.37
56176;BME280;63065;51.082;17.016;2023-02-28T07:37:27;101807.06;;;5.93;29.95
56176;BME280;63065;51.082;17.016;2023-02-28T07:39:52;101808.25;;;6.01;29.47
56176;BME280;63065;51.082;17.016;2023-02-28T07:42:17;101811.39;;;5.96;29.91
56176;BME280;63065;51.082;17.016;2023-02-28T07:44:43;101812.88;;;5.99;29.07
56176;BME280;63065;51.082;17.016;2023-02-28T07:47:09;101816.19;;;5.78;30.36
56176;BME280;63065;51.082;17.016;2023-02-28T07:49:34;101815.64;;;6.02;29.28
56176;BME280;63065;51.082;17.016;2023-02-28T07:51:59;101816.61;;;6.16;30.44
56176;BME280;63065;51.082;17.016;2023-02-28T07:54:24;101815.60;;;5.76;28.73
56176;BME280;63065;51.082;17.016;2023-02-28T07:56:50;101817.00;;;6.22;30.36
56176;BME280;63065;51.082;17.016;2023-02-28T07:59:15;101816.29;;;6.33;28.75
56176;BME280;63065;51.082;17.016;2023-02-28T08:01:41;101813.35;;;6.07;27.79
56176;BME280;63065;51.082;17.016;2023-02-28T08:04:06;101809.13;;;6.30;28.86
56176;BME280;63065;51.082;17.016;2023-02-28T08:06:31;101813.65;;;6.32;28.58
56176;BME280;63065;51.082;17.016;2023-02-28T08:08:56;101814.50;;;6.38;27.49
56176;BME280;63065;51.082;17.016;2023-02-28T08:11:22;101815.43;;;6.40;28.25
56176;BME280;63065;51.082;17.016;2023-02-28T08:13:47;101815.65;;;6.30;29.23
56176;BME280;63065;51.082;17.016;2023-02-28T08:16:13;101810.07;;;6.39;27.23
56176;BME280;63065;51.082;17.016;2023-02-28T08:18:39;101810.90;;;6.20;27.19
56176;BME280;63065;51.082;17.016;2023-02-28T08:21:07;101813.88;;;6.35;28.07
56176;BME280;63065;51.082;17.016;2023-02-28T08:23:31;101813.92;;;6.34;28.53
56176;BME280;63065;51.082;17.016;2023-02-28T08:25:56;101811.15;;;6.41;28.48
56176;BME280;63065;51.082;17.016;2023-02-28T08:28:20;101808.66;;;6.53;28.35
56176;BME280;63065;51.082;17.016;2023-02-28T08:30:46;101809.39;;;6.57;28.02
56176;BME280;63065;51.082;17.016;2023-02-28T08:33:11;101809.40;;;6.35;27.89
56176;BME280;63065;51.082;17.016;2023-02-28T08:35:36;101812.55;;;6.56;28.63
56176;BME280;63065;51.082;17.016;2023-02-28T08:38:02;101808.20;;;6.22;26.94
56176;BME280;63065;51.082;17.016;2023-02-28T08:40:28;101806.95;;;6.44;27.17
56176;BME280;63065;51.082;17.016;2023-02-28T08:42:53;101809.87;;;6.36;28.04
56176;BME280;63065;51.082;17.016;2023-02-28T08:45:18;101811.02;;;6.61;28.21
56176;BME280;63065;51.082;17.016;2023-02-28T08:47:44;101814.48;;;6.44;28.42
56176;BME280;63065;51.082;17.016;2023-02-28T08:50:10;101810.69;;;6.49;25.93
56176;BME280;63065;51.082;17.016;2023-02-28T08:52:35;101810.34;;;6.13;26.62
56176;BME280;63065;51.082;17.016;2023-02-28T08:55:00;101812.02;;;6.88;26.83
56176;BME280;63065;51.082;17.016;2023-02-28T08:57:26;101815.20;;;6.50;27.31
56176;BME280;63065;51.082;17.016;2023-02-28T08:59:52;101813.66;;;6.73;27.28
56176;BME280;63065;51.082;17.016;2023-02-28T09:02:16;101816.19;;;6.67;26.60
56176;BME280;63065;51.082;17.016;2023-02-28T09:04:42;101816.05;;;6.43;26.87
56176;BME280;63065;51.082;17.016;2023-02-28T09:07:07;101813.85;;;6.52;27.98
56176;BME280;63065;51.082;17.016;2023-02-28T09:09:32;101816.42;;;6.78;27.83
56176;BME280;63065;51.082;17.016;2023-02-28T09:11:58;101812.66;;;6.63;26.30
56176;BME280;63065;51.082;17.016;2023-02-28T09:14:23;101813.12;;;7.13;27.03
56176;BME280;63065;51.082;17.016;2023-02-28T09:16:48;101811.48;;;7.09;26.60
56176;BME280;63065;51.082;17.016;2023-02-28T09:19:13;101811.30;;;6.78;26.97
56176;BME280;63065;51.082;17.016;2023-02-28T09:21:39;101811.97;;;6.57;27.58
56176;BME280;63065;51.082;17.016;2023-02-28T09:24:05;101806.26;;;6.71;25.92
56176;BME280;63065;51.082;17.016;2023-02-28T09:26:31;101802.76;;;6.68;26.43
56176;BME280;63065;51.082;17.016;2023-02-28T09:28:55;101801.99;;;6.76;27.28
56176;BME280;63065;51.082;17.016;2023-02-28T09:31:23;101804.43;;;6.33;27.61
56176;BME280;63065;51.082;17.016;2023-02-28T09:33:47;101803.97;;;6.80;27.79
56176;BME280;63065;51.082;17.016;2023-02-28T09:36:12;101793.18;;;7.07;26.23
56176;BME280;63065;51.082;17.016;2023-02-28T09:38:37;101790.83;;;6.92;26.16
56176;BME280;63065;51.082;17.016;2023-02-28T09:41:09;101790.71;;;6.83;25.49
56176;BME280;63065;51.082;17.016;2023-02-28T09:43:33;101787.88;;;7.05;27.42
56176;BME280;63065;51.082;17.016;2023-02-28T09:45:56;101787.85;;;6.89;27.06
56176;BME280;63065;51.082;17.016;2023-02-28T09:48:23;101788.07;;;6.67;27.39
56176;BME280;63065;51.082;17.016;2023-02-28T09:50:47;101788.87;;;6.96;26.60
56176;BME280;63065;51.082;17.016;2023-02-28T09:53:18;101780.85;;;6.92;25.90
56176;BME280;63065;51.082;17.016;2023-02-28T09:55:39;101783.60;;;6.84;26.64
56176;BME280;63065;51.082;17.016;2023-02-28T09:58:01;101785.63;;;7.02;27.39
56176;BME280;63065;51.082;17.016;2023-02-28T10:00:31;101787.64;;;6.91;27.39
56176;BME280;63065;51.082;17.016;2023-02-28T10:03:02;101790.30;;;7.19;28.04
56176;BME280;63065;51.082;17.016;2023-02-28T10:05:20;101791.35;;;7.36;26.76
56176;BME280;63065;51.082;17.016;2023-02-28T10:07:53;101797.28;;;7.49;26.47
56176;BME280;63065;51.082;17.016;2023-02-28T10:10:17;101797.32;;;7.48;25.97
56176;BME280;63065;51.082;17.016;2023-02-28T10:12:33;101790.90;;;7.39;26.97
56176;BME280;63065;51.082;17.016;2023-02-28T10:14:59;101794.06;;;7.04;28.10
56176;BME280;63065;51.082;17.016;2023-02-28T10:17:26;101796.21;;;7.41;26.35
56176;BME280;63065;51.082;17.016;2023-02-28T10:19:57;101798.19;;;7.52;26.44
56176;BME280;63065;51.082;17.016;2023-02-28T10:22:17;101797.01;;;7.42;26.74
56176;BME280;63065;51.082;17.016;2023-02-28T10:24:43;101797.30;;;7.60;26.42
56176;BME280;63065;51.082;17.016;2023-02-28T10:27:13;101795.58;;;7.39;26.21
56176;BME280;63065;51.082;17.016;2023-02-28T10:29:32;101794.51;;;7.51;26.45
56176;BME280;63065;51.082;17.016;2023-02-28T10:32:02;101792.13;;;7.70;27.40
56176;BME280;63065;51.082;17.016;2023-02-28T10:34:22;101791.51;;;7.95;26.21
56176;BME280;63065;51.082;17.016;2023-02-28T10:36:48;101783.01;;;7.84;25.78
56176;BME280;63065;51.082;17.016;2023-02-28T10:41:42;101781.84;;;7.59;27.21
56176;BME280;63065;51.082;17.016;2023-02-28T10:44:13;101783.57;;;7.52;26.72
56176;BME280;63065;51.082;17.016;2023-02-28T10:46:31;101779.02;;;7.81;26.03
56176;BME280;63065;51.082;17.016;2023-02-28T10:49:01;101776.82;;;7.71;26.23
56176;BME280;63065;51.082;17.016;2023-02-28T10:51:22;101773.66;;;8.27;26.12
56176;BME280;63065;51.082;17.016;2023-02-28T10:53:48;101778.62;;;7.57;26.73
56176;BME280;63065;51.082;17.016;2023-02-28T10:56:16;101774.24;;;7.67;26.35
56176;BME280;63065;51.082;17.016;2023-02-28T10:58:44;101771.60;;;7.93;26.54
56176;BME280;63065;51.082;17.016;2023-02-28T11:01:00;101769.93;;;7.95;24.92
56176;BME280;63065;51.082;17.016;2023-02-28T11:03:31;101765.97;;;8.02;25.18
56176;BME280;63065;51.082;17.016;2023-02-28T11:05:51;101763.21;;;7.81;27.10
56176;BME280;63065;51.082;17.016;2023-02-28T11:08:17;101762.73;;;7.72;25.42
56176;BME280;63065;51.082;17.016;2023-02-28T11:10:46;101761.22;;;8.05;27.75
56176;BME280;63065;51.082;17.016;2023-02-28T11:13:16;101759.30;;;8.21;26.58
56176;BME280;63065;51.082;17.016;2023-02-28T11:15:33;101759.80;;;8.22;26.75
56176;BME280;63065;51.082;17.016;2023-02-28T11:18:00;101758.90;;;8.57;26.82
56176;BME280;63065;51.082;17.016;2023-02-28T11:20:26;101761.17;;;8.78;25.68
56176;BME280;63065;51.082;17.016;2023-02-28T11:22:48;101761.01;;;8.92;26.67
56176;BME280;63065;51.082;17.016;2023-02-28T11:25:21;101750.16;;;8.88;25.47
56176;BME280;63065;51.082;17.016;2023-02-28T11:27:46;101747.51;;;9.28;26.23
56176;BME280;63065;51.082;17.016;2023-02-28T11:32:31;101751.77;;;8.70;25.34
56176;BME280;63065;51.082;17.016;2023-02-28T11:35:00;101749.91;;;8.79;25.21
56176;BME280;63065;51.082;17.016;2023-02-28T11:37:21;101750.00;;;9.08;23.84
56176;BME280;63065;51.082;17.016;2023-02-28T11:39:47;101747.96;;;9.16;25.23
56176;BME280;63065;51.082;17.016;2023-02-28T11:42:24;101746.34;;;8.87;25.80
56176;BME280;63065;51.082;17.016;2023-02-28T11:44:48;101746.49;;;8.85;25.38
56176;BME280;63065;51.082;17.016;2023-02-28T11:47:09;101742.30;;;9.35;24.60
56176;BME280;63065;51.082;17.016;2023-02-28T11:49:34;101745.38;;;8.82;26.10
56176;BME280;63065;51.082;17.016;2023-02-28T11:51:56;101741.12;;;8.94;25.95
56176;BME280;63065;51.082;17.016;2023-02-28T11:54:34;101740.56;;;9.25;25.45
56176;BME280;63065;51.082;17.016;2023-02-28T11:56:48;101738.89;;;9.57;25.90
56176;BME280;63065;51.082;17.016;2023-02-28T11:59:27;101735.97;;;9.24;24.07
56176;BME280;63065;51.082;17.016;2023-02-28T12:01:47;101735.04;;;9.39;24.48
56176;BME280;63065;51.082;17.016;2023-02-28T12:04:12;101729.77;;;9.52;24.95
56176;BME280;63065;51.082;17.016;2023-02-28T12:06:31;101723.64;;;9.82;23.97
56176;BME280;63065;51.082;17.016;2023-02-28T12:09:02;101725.11;;;9.68;24.93
56176;BME280;63065;51.082;17.016;2023-02-28T12:11:27;101727.47;;;9.19;25.23
56176;BME280;63065;51.082;17.016;2023-02-28T12:13:49;101722.57;;;9.44;23.84
56176;BME280;63065;51.082;17.016;2023-02-28T12:16:20;101718.72;;;9.38;24.99
56176;BME280;63065;51.082;17.016;2023-02-28T12:18:47;101713.89;;;9.45;23.62
56176;BME280;63065;51.082;17.016;2023-02-28T12:21:04;101714.97;;;9.59;25.70
56176;BME280;63065;51.082;17.016;2023-02-28T12:25:57;101705.90;;;10.03;24.31
56176;BME280;63065;51.082;17.016;2023-02-28T12:28:18;101706.86;;;9.88;23.76
56176;BME280;63065;51.082;17.016;2023-02-28T12:30:45;101701.55;;;10.01;24.22
56176;BME280;63065;51.082;17.016;2023-02-28T12:33:08;101701.87;;;10.33;23.16
56176;BME280;63065;51.082;17.016;2023-02-28T12:35:34;101697.87;;;10.00;23.40
56176;BME280;63065;51.082;17.016;2023-02-28T12:38:01;101694.59;;;10.13;24.46
56176;BME280;63065;51.082;17.016;2023-02-28T12:40:23;101690.85;;;9.99;24.76
56176;BME280;63065;51.082;17.016;2023-02-28T12:42:51;101687.78;;;9.74;24.09
56176;BME280;63065;51.082;17.016;2023-02-28T12:45:18;101686.18;;;9.99;24.29
56176;BME280;63065;51.082;17.016;2023-02-28T12:47:38;101684.20;;;10.03;24.02
56176;BME280;63065;51.082;17.016;2023-02-28T12:50:05;101682.64;;;9.89;23.16
56176;BME280;63065;51.082;17.016;2023-02-28T12:52:37;101680.29;;;10.00;24.66
56176;BME280;63065;51.082;17.016;2023-02-28T12:55:05;101675.68;;;9.77;23.95
56176;BME280;63065;51.082;17.016;2023-02-28T12:57:25;101677.47;;;10.13;24.37